createdAt,value
2023-01-21T00:02:15.278Z,-0.47
2023-01-21T00:04:48.522Z,-0.46
2023-01-21T00:07:21.073Z,-0.46
2023-01-21T00:09:53.432Z,-0.43
2023-01-21T00:12:26.142Z,-0.41
2023-01-21T00:14:58.874Z,-0.42
2023-01-21T00:17:35.681Z,-0.47
2023-01-21T00:20:10.333Z,-0.49
2023-01-21T00:22:43.763Z,-0.46
2023-01-21T00:25:17.103Z,-0.42
2023-01-21T00:27:49.841Z,-0.39
2023-01-21T00:30:24.752Z,-0.44
2023-01-21T00:32:57.113Z,-0.49
2023-01-21T00:35:29.683Z,-0.44
2023-01-21T00:38:02.083Z,-0.39
2023-01-21T00:40:34.654Z,-0.41
2023-01-21T00:43:07.327Z,-0.46
2023-01-21T00:45:40.079Z,-0.44
2023-01-21T00:48:12.919Z,-0.43
2023-01-21T00:50:45.441Z,-0.43
2023-01-21T00:53:18.196Z,-0.44
2023-01-21T00:55:51.033Z,-0.40
2023-01-21T00:58:23.584Z,-0.42
2023-01-21T01:01:04.266Z,-0.47
2023-01-21T01:03:37.371Z,-0.46
2023-01-21T01:06:13.440Z,-0.45
2023-01-21T01:08:46.796Z,-0.46
2023-01-21T01:11:21.880Z,-0.44
2023-01-21T01:13:54.755Z,-0.46
2023-01-21T01:16:27.933Z,-0.49
2023-01-21T01:19:00.290Z,-0.47
2023-01-21T01:21:33.480Z,-0.48
2023-01-21T01:24:07.402Z,-0.51
2023-01-21T01:26:42.386Z,-0.50
2023-01-21T01:29:16.631Z,-0.49
2023-01-21T01:31:49.363Z,-0.51
2023-01-21T01:34:35.093Z,-0.56
2023-01-21T01:37:08.186Z,-0.56
2023-01-21T01:39:40.625Z,-0.55
2023-01-21T01:42:17.871Z,-0.59
2023-01-21T01:45:08.360Z,-0.55
2023-01-21T01:47:46.063Z,-0.58
2023-01-21T01:50:21.942Z,-0.51
2023-01-21T01:52:54.764Z,-0.52
2023-01-21T01:55:29.286Z,-0.53
2023-01-21T01:58:03.925Z,-0.50
2023-01-21T02:00:36.812Z,-0.52
2023-01-21T02:03:27.245Z,-0.54
2023-01-21T02:05:59.825Z,-0.52
2023-01-21T02:08:36.530Z,-0.56
2023-01-21T02:11:15.167Z,-0.55
2023-01-21T02:13:51.605Z,-0.51
2023-01-21T02:16:49.806Z,-0.53
2023-01-21T02:19:52.407Z,-0.60
2023-01-21T02:22:32.247Z,-0.54
2023-01-21T02:25:58.376Z,-0.58
2023-01-21T02:29:10.402Z,-0.62
2023-01-21T02:32:24.864Z,-0.58
2023-01-21T02:35:07.145Z,-0.58
2023-01-21T02:37:43.805Z,-0.58
2023-01-21T02:40:22.780Z,-0.53
2023-01-21T02:43:04.011Z,-0.59
2023-01-21T02:45:44.268Z,-0.57
2023-01-21T02:48:22.340Z,-0.56
2023-01-21T02:50:56.340Z,-0.59
2023-01-21T02:53:31.423Z,-0.60
2023-01-21T02:56:08.261Z,-0.58
2023-01-21T02:58:45.053Z,-0.55
2023-01-21T03:01:28.525Z,-0.56
2023-01-21T03:04:33.352Z,-0.56
2023-01-21T03:07:13.094Z,-0.59
2023-01-21T03:09:45.845Z,-0.60
2023-01-21T03:12:30.857Z,-0.59
2023-01-21T03:15:27.903Z,-0.61
2023-01-21T03:18:06.783Z,-0.54
2023-01-21T03:20:44.597Z,-0.53
2023-01-21T03:23:24.124Z,-0.52
2023-01-21T03:25:58.206Z,-0.57
2023-01-21T03:28:36.665Z,-0.61
2023-01-21T03:31:14.208Z,-0.56
2023-01-21T03:33:50.425Z,-0.52
2023-01-21T03:36:28.889Z,-0.54
2023-01-21T03:39:09.394Z,-0.54
2023-01-21T03:41:43.330Z,-0.57
2023-01-21T03:44:15.834Z,-0.56
2023-01-21T03:46:58.434Z,-0.65
2023-01-21T03:49:36.696Z,-0.60
2023-01-21T03:52:11.665Z,-0.55
2023-01-21T03:54:44.266Z,-0.57
2023-01-21T03:57:17.199Z,-0.62
2023-01-21T03:59:52.100Z,-0.58
2023-01-21T04:02:24.879Z,-0.58
2023-01-21T04:04:57.546Z,-0.57
2023-01-21T04:07:30.128Z,-0.57
2023-01-21T04:10:02.582Z,-0.56
2023-01-21T04:12:35.176Z,-0.58
2023-01-21T04:15:09.276Z,-0.55
2023-01-21T04:17:43.646Z,-0.52
2023-01-21T04:20:17.114Z,-0.56
2023-01-21T04:22:48.175Z,-0.57
2023-01-21T04:25:20.957Z,-0.55
2023-01-21T04:27:53.526Z,-0.60
2023-01-21T04:30:26.306Z,-0.55
2023-01-21T04:32:58.955Z,-0.51
2023-01-21T04:35:31.965Z,-0.49
2023-01-21T04:38:06.237Z,-0.51
2023-01-21T04:40:39.046Z,-0.55
2023-01-21T04:43:11.949Z,-0.52
2023-01-21T04:45:44.365Z,-0.53
2023-01-21T04:48:17.018Z,-0.52
2023-01-21T04:50:49.648Z,-0.53
2023-01-21T04:53:22.203Z,-0.54
2023-01-21T04:55:56.297Z,-0.53
2023-01-21T04:58:29.086Z,-0.51
2023-01-21T05:01:01.757Z,-0.56
2023-01-21T05:03:34.399Z,-0.51
2023-01-21T05:06:08.597Z,-0.50
2023-01-21T05:08:41.207Z,-0.51
2023-01-21T05:11:22.456Z,-0.46
2023-01-21T05:13:55.209Z,-0.41
2023-01-21T05:16:27.918Z,-0.47
2023-01-21T05:19:02.011Z,-0.44
2023-01-21T05:21:34.576Z,-0.47
2023-01-21T05:24:08.038Z,-0.48
2023-01-21T05:26:40.509Z,-0.51
2023-01-21T05:29:14.035Z,-0.47
2023-01-21T05:31:46.760Z,-0.43
2023-01-21T05:34:19.376Z,-0.43
2023-01-21T05:36:52.006Z,-0.46
2023-01-21T05:39:24.705Z,-0.51
2023-01-21T05:41:57.286Z,-0.47
2023-01-21T05:44:29.790Z,-0.46
2023-01-21T05:47:02.277Z,-0.45
2023-01-21T05:49:35.164Z,-0.45
2023-01-21T05:52:10.049Z,-0.47
2023-01-21T05:54:59.919Z,-0.51
2023-01-21T05:57:34.387Z,-0.49
2023-01-21T06:00:08.445Z,-0.48
2023-01-21T06:02:41.329Z,-0.49
2023-01-21T06:05:14.175Z,-0.53
2023-01-21T06:07:46.690Z,-0.53
2023-01-21T06:10:20.872Z,-0.50
2023-01-21T06:12:54.837Z,-0.51
2023-01-21T06:15:27.999Z,-0.50
2023-01-21T06:18:00.444Z,-0.47
2023-01-21T06:20:33.166Z,-0.51
2023-01-21T06:23:06.888Z,-0.52
2023-01-21T06:25:37.525Z,-0.47
2023-01-21T06:28:10.822Z,-0.50
2023-01-21T06:30:43.545Z,-0.46
2023-01-21T06:33:16.184Z,-0.47
2023-01-21T06:35:49.175Z,-0.45
2023-01-21T06:38:21.665Z,-0.45
2023-01-21T06:40:54.303Z,-0.46
2023-01-21T06:43:26.900Z,-0.45
2023-01-21T06:45:59.509Z,-0.45
2023-01-21T06:48:32.357Z,-0.45
2023-01-21T06:51:05.489Z,-0.47
2023-01-21T06:53:38.015Z,-0.44
2023-01-21T06:56:11.435Z,-0.43
2023-01-21T06:58:43.965Z,-0.44
2023-01-21T07:01:17.110Z,-0.42
2023-01-21T07:03:49.611Z,-0.44
2023-01-21T07:06:23.252Z,-0.47
2023-01-21T07:08:55.651Z,-0.41
2023-01-21T07:11:28.423Z,-0.42
2023-01-21T07:14:01.000Z,-0.38
2023-01-21T07:16:33.685Z,-0.34
2023-01-21T07:19:06.470Z,-0.29
2023-01-21T07:21:41.645Z,-0.27
2023-01-21T07:24:14.247Z,-0.25
2023-01-21T07:26:46.830Z,-0.24
2023-01-21T07:29:19.766Z,-0.25
2023-01-21T07:31:52.470Z,-0.21
2023-01-21T07:34:25.351Z,-0.17
2023-01-21T07:36:58.559Z,-0.14
2023-01-21T07:39:31.011Z,-0.10
2023-01-21T07:42:03.777Z,-0.09
2023-01-21T07:44:36.264Z,-0.07
2023-01-21T07:47:10.824Z,-0.00
2023-01-21T07:49:43.536Z,0.03
2023-01-21T07:52:16.089Z,0.05
2023-01-21T07:54:49.056Z,0.16
2023-01-21T07:57:22.068Z,0.18
2023-01-21T07:59:54.849Z,0.19
2023-01-21T08:02:28.477Z,0.29
2023-01-21T08:05:01.226Z,0.38
2023-01-21T08:07:34.107Z,0.43
2023-01-21T08:10:07.546Z,0.57
2023-01-21T08:12:42.226Z,0.65
2023-01-21T08:15:16.892Z,0.65
2023-01-21T08:17:49.967Z,0.71
2023-01-21T08:20:24.384Z,0.76
2023-01-21T08:23:00.790Z,0.74
2023-01-21T08:25:33.725Z,0.82
2023-01-21T08:28:06.717Z,0.79
2023-01-21T08:30:39.752Z,0.79
2023-01-21T08:33:12.497Z,0.77
2023-01-21T08:35:45.512Z,0.88
2023-01-21T08:38:18.144Z,0.85
2023-01-21T08:40:50.495Z,0.88
2023-01-21T08:43:23.118Z,0.91
2023-01-21T08:45:57.870Z,0.98
2023-01-21T08:48:31.145Z,1.00
2023-01-21T08:51:04.136Z,0.95
2023-01-21T08:53:36.709Z,0.93
2023-01-21T08:56:10.626Z,1.03
2023-01-21T08:58:43.266Z,1.12
2023-01-21T09:01:18.065Z,1.14
2023-01-21T09:03:50.688Z,1.13
2023-01-21T09:06:23.199Z,1.11
2023-01-21T09:08:56.445Z,1.18
2023-01-21T09:11:31.295Z,1.21
2023-01-21T09:14:04.547Z,1.27
2023-01-21T09:16:38.019Z,1.31
2023-01-21T09:19:11.432Z,1.32
2023-01-21T09:21:43.889Z,1.38
2023-01-21T09:24:16.419Z,1.39
2023-01-21T09:26:49.315Z,1.47
2023-01-21T09:29:22.315Z,1.48
2023-01-21T09:31:55.181Z,1.53
2023-01-21T09:34:29.925Z,1.58
2023-01-21T09:37:03.385Z,1.63
2023-01-21T09:39:35.916Z,1.69
2023-01-21T09:42:18.535Z,1.70
2023-01-21T09:44:55.384Z,1.68
2023-01-21T09:47:33.008Z,1.76
2023-01-21T09:50:09.555Z,1.83
2023-01-21T09:52:44.707Z,1.86
2023-01-21T09:55:20.905Z,1.91
2023-01-21T09:58:15.735Z,2.02
2023-01-21T10:00:51.699Z,2.02
2023-01-21T10:03:31.160Z,2.06
2023-01-21T10:06:17.678Z,2.07
2023-01-21T10:09:08.610Z,2.08
2023-01-21T10:11:56.356Z,2.14
2023-01-21T10:14:51.185Z,2.19
2023-01-21T10:17:35.116Z,2.13
2023-01-21T10:20:16.847Z,2.19
2023-01-21T10:22:55.300Z,2.24
2023-01-21T10:25:32.368Z,2.27
2023-01-21T10:28:11.066Z,2.33
2023-01-21T10:30:47.599Z,2.37
2023-01-21T10:33:22.649Z,2.45
2023-01-21T10:36:24.635Z,2.53
2023-01-21T10:39:09.357Z,2.61
2023-01-21T10:41:57.546Z,2.70
2023-01-21T10:44:40.075Z,2.73
2023-01-21T10:47:22.348Z,2.79
2023-01-21T10:50:02.192Z,2.84
2023-01-21T10:52:40.408Z,2.86
2023-01-21T10:55:24.212Z,2.93
2023-01-21T10:58:04.025Z,2.97
2023-01-21T11:00:44.849Z,2.93
2023-01-21T11:03:29.951Z,2.95
2023-01-21T11:06:04.743Z,2.94
2023-01-21T11:08:37.505Z,2.94
2023-01-21T11:11:13.135Z,2.93
2023-01-21T11:13:45.853Z,2.93
2023-01-21T11:16:35.754Z,2.92
2023-01-21T11:19:13.518Z,2.92
2023-01-21T11:22:02.964Z,2.94
2023-01-21T11:24:44.646Z,2.94
2023-01-21T11:27:32.965Z,2.94
2023-01-21T11:30:19.571Z,2.90
2023-01-21T11:33:15.114Z,2.85
2023-01-21T11:35:47.814Z,2.82
2023-01-21T11:38:36.931Z,2.86
2023-01-21T11:41:18.540Z,2.82
2023-01-21T11:43:53.049Z,2.75
2023-01-21T11:46:36.415Z,2.62
2023-01-21T11:49:30.298Z,2.59
2023-01-21T11:52:17.994Z,2.61
2023-01-21T11:54:51.242Z,2.66
2023-01-21T11:57:31.740Z,2.73
2023-01-21T12:00:23.013Z,2.78
2023-01-21T12:02:59.354Z,2.85
2023-01-21T12:05:38.386Z,2.93
2023-01-21T12:08:17.824Z,2.99
2023-01-21T12:10:51.808Z,3.02
2023-01-21T12:13:32.365Z,3.06
2023-01-21T12:16:29.874Z,3.08
2023-01-21T12:19:25.345Z,3.09
2023-01-21T12:22:24.217Z,3.12
2023-01-21T12:25:19.776Z,3.08
2023-01-21T12:28:05.260Z,3.03
2023-01-21T12:30:44.920Z,2.92
2023-01-21T12:33:23.108Z,2.84
2023-01-21T12:35:58.833Z,2.73
2023-01-21T12:38:37.075Z,2.73
2023-01-21T12:41:15.359Z,2.66
2023-01-21T12:43:52.138Z,2.62
2023-01-21T12:46:29.355Z,2.55
2023-01-21T12:49:10.682Z,2.44
2023-01-21T12:51:45.974Z,2.28
2023-01-21T12:54:23.235Z,2.27
2023-01-21T12:57:02.042Z,2.23
2023-01-21T12:59:40.298Z,2.35
2023-01-21T13:02:25.013Z,2.40
2023-01-21T13:05:03.513Z,2.41
2023-01-21T13:07:46.574Z,2.36
2023-01-21T13:10:26.648Z,2.38
2023-01-21T13:13:01.931Z,2.36
2023-01-21T13:15:37.415Z,2.37
2023-01-21T13:18:17.090Z,2.33
2023-01-21T13:20:54.607Z,2.32
2023-01-21T13:23:35.219Z,2.31
2023-01-21T13:26:16.516Z,2.32
2023-01-21T13:28:56.421Z,2.33
2023-01-21T13:31:34.722Z,2.38
2023-01-21T13:34:15.816Z,2.38
2023-01-21T13:37:02.824Z,2.38
2023-01-21T13:39:44.471Z,2.38
2023-01-21T13:42:38.712Z,2.37
2023-01-21T13:45:26.542Z,2.36
2023-01-21T13:48:10.495Z,2.35
2023-01-21T13:50:59.034Z,2.35
2023-01-21T13:53:51.329Z,2.32
2023-01-21T13:56:39.035Z,2.27
2023-01-21T13:59:19.349Z,2.29
2023-01-21T14:01:58.439Z,2.29
2023-01-21T14:04:35.075Z,2.26
2023-01-21T14:07:10.751Z,2.24
2023-01-21T14:09:49.336Z,2.21
2023-01-21T14:12:30.535Z,2.21
2023-01-21T14:15:23.273Z,2.20
2023-01-21T14:18:14.659Z,2.16
2023-01-21T14:21:25.386Z,2.10
2023-01-21T14:24:13.825Z,2.04
2023-01-21T14:27:06.347Z,2.02
2023-01-21T14:29:45.626Z,2.00
2023-01-21T14:32:24.168Z,1.98
2023-01-21T14:35:11.375Z,1.94
2023-01-21T14:37:51.877Z,1.91
2023-01-21T14:40:30.855Z,1.86
2023-01-21T14:43:03.585Z,1.76
2023-01-21T14:45:57.752Z,1.73
2023-01-21T14:48:32.385Z,1.58
2023-01-21T14:51:22.670Z,1.48
2023-01-21T14:54:00.032Z,1.44
2023-01-21T14:56:35.392Z,1.45
2023-01-21T14:59:10.356Z,1.45
2023-01-21T15:01:46.039Z,1.46
2023-01-21T15:04:29.636Z,1.43
2023-01-21T15:07:04.976Z,1.35
2023-01-21T15:09:43.396Z,1.32
2023-01-21T15:12:21.650Z,1.33
2023-01-21T15:14:58.996Z,1.29
2023-01-21T15:18:03.782Z,1.21
2023-01-21T15:20:50.062Z,1.19
2023-01-21T15:23:36.761Z,1.14
2023-01-21T15:26:34.080Z,1.10
2023-01-21T15:29:34.171Z,0.99
2023-01-21T15:32:36.293Z,0.82
2023-01-21T15:35:20.450Z,0.75
2023-01-21T15:38:01.267Z,0.66
2023-01-21T15:40:43.640Z,0.58
2023-01-21T15:43:25.106Z,0.53
2023-01-21T15:46:19.508Z,0.52
2023-01-21T15:49:05.876Z,0.45
2023-01-21T15:51:48.388Z,0.35
2023-01-21T15:54:32.121Z,0.30
2023-01-21T15:57:20.577Z,0.33
2023-01-21T16:00:10.094Z,0.27
2023-01-21T16:02:54.105Z,0.29
2023-01-21T16:05:35.747Z,0.32
2023-01-21T16:08:20.182Z,0.30
2023-01-21T16:11:04.131Z,0.35
2023-01-21T16:13:51.547Z,0.36
2023-01-21T16:16:37.261Z,0.35
2023-01-21T16:19:13.079Z,0.32
2023-01-21T16:21:50.577Z,0.29
2023-01-21T16:24:27.993Z,0.24
2023-01-21T16:27:20.443Z,0.16
2023-01-21T16:29:59.087Z,0.12
2023-01-21T16:32:32.780Z,0.10
2023-01-21T16:35:06.004Z,0.13
2023-01-21T16:37:39.718Z,0.15
2023-01-21T16:40:30.002Z,0.17
2023-01-21T16:43:23.108Z,0.23
2023-01-21T16:45:57.718Z,0.27
2023-01-21T16:48:32.747Z,0.23
2023-01-21T16:51:06.397Z,0.20
2023-01-21T16:53:39.372Z,0.18
2023-01-21T16:56:28.366Z,0.16
2023-01-21T16:59:01.302Z,0.24
2023-01-21T17:01:34.211Z,0.23
2023-01-21T17:04:07.494Z,0.28
2023-01-21T17:06:41.288Z,0.33
2023-01-21T17:09:27.056Z,0.35
2023-01-21T17:12:03.775Z,0.42
2023-01-21T17:14:38.962Z,0.47
2023-01-21T17:17:21.290Z,0.50
2023-01-21T17:19:54.438Z,0.51
2023-01-21T17:22:30.907Z,0.45
2023-01-21T17:25:09.441Z,0.37
2023-01-21T17:27:46.721Z,0.44
2023-01-21T17:30:32.282Z,0.47
2023-01-21T17:33:06.067Z,0.49
2023-01-21T17:35:38.821Z,0.47
2023-01-21T17:38:31.551Z,0.49
2023-01-21T17:41:09.930Z,0.52
2023-01-21T17:43:50.952Z,0.52
2023-01-21T17:46:24.366Z,0.47
2023-01-21T17:49:00.111Z,0.44
2023-01-21T17:51:33.873Z,0.45
2023-01-21T17:54:16.279Z,0.45
2023-01-21T17:56:53.363Z,0.42
2023-01-21T17:59:39.253Z,0.46
2023-01-21T18:02:14.707Z,0.44
2023-01-21T18:04:47.857Z,0.41
2023-01-21T18:07:26.381Z,0.42
2023-01-21T18:10:03.589Z,0.37
2023-01-21T18:12:36.363Z,0.40
2023-01-21T18:15:13.891Z,0.38
2023-01-21T18:17:49.170Z,0.37
2023-01-21T18:20:23.466Z,0.39
2023-01-21T18:22:57.267Z,0.43
2023-01-21T18:25:30.728Z,0.45
2023-01-21T18:28:03.468Z,0.45
2023-01-21T18:30:36.161Z,0.44
2023-01-21T18:33:09.130Z,0.44
2023-01-21T18:35:46.152Z,0.40
2023-01-21T18:38:27.859Z,0.45
2023-01-21T18:41:00.968Z,0.47
2023-01-21T18:43:34.149Z,0.48
2023-01-21T18:46:10.823Z,0.46
2023-01-21T18:48:43.790Z,0.41
2023-01-21T18:51:16.734Z,0.41
2023-01-21T18:53:49.435Z,0.42
2023-01-21T18:56:22.458Z,0.42
2023-01-21T18:58:55.328Z,0.44
2023-01-21T19:01:28.131Z,0.47
2023-01-21T19:04:00.748Z,0.48
2023-01-21T19:06:37.801Z,0.45
2023-01-21T19:09:22.577Z,0.43
2023-01-21T19:11:55.484Z,0.47
2023-01-21T19:14:30.903Z,0.47
2023-01-21T19:17:05.843Z,0.43
2023-01-21T19:19:41.219Z,0.44
2023-01-21T19:22:18.956Z,0.46
2023-01-21T19:24:52.627Z,0.47
2023-01-21T19:27:30.491Z,0.45
2023-01-21T19:30:03.596Z,0.46
2023-01-21T19:32:36.140Z,0.44
2023-01-21T19:35:10.259Z,0.43
2023-01-21T19:37:44.911Z,0.42
2023-01-21T19:40:21.011Z,0.44
2023-01-21T19:42:53.813Z,0.46
2023-01-21T19:45:28.989Z,0.45
2023-01-21T19:48:04.318Z,0.44
2023-01-21T19:50:40.318Z,0.44
2023-01-21T19:53:20.198Z,0.44
2023-01-21T19:55:53.807Z,0.41
2023-01-21T19:58:27.361Z,0.40
2023-01-21T20:01:02.015Z,0.30
2023-01-21T20:03:34.946Z,0.28
2023-01-21T20:06:12.231Z,0.24
2023-01-21T20:08:49.605Z,0.28
2023-01-21T20:11:26.490Z,0.26
2023-01-21T20:14:01.953Z,0.23
2023-01-21T20:16:46.360Z,0.22
2023-01-21T20:19:21.660Z,0.19
2023-01-21T20:22:02.204Z,0.23
2023-01-21T20:24:35.749Z,0.23
2023-01-21T20:27:16.056Z,0.17
2023-01-21T20:30:02.473Z,0.14
2023-01-21T20:32:50.151Z,0.11
2023-01-21T20:35:39.692Z,0.12
2023-01-21T20:38:21.432Z,0.16
2023-01-21T20:40:54.147Z,0.16
2023-01-21T20:43:28.727Z,0.18
2023-01-21T20:46:04.792Z,0.18
2023-01-21T20:48:42.229Z,0.19
2023-01-21T20:51:17.755Z,0.15
2023-01-21T20:53:53.101Z,0.17
2023-01-21T20:56:33.086Z,0.14
2023-01-21T20:59:06.291Z,0.14
2023-01-21T21:01:40.231Z,0.14
2023-01-21T21:04:13.240Z,-0.10
2023-01-21T21:06:46.160Z,-0.15
2023-01-21T21:09:20.673Z,-0.13
2023-01-21T21:11:55.629Z,-0.11
2023-01-21T21:14:26.717Z,-0.07
2023-01-21T21:17:01.328Z,-0.11
2023-01-21T21:19:34.294Z,-0.08
2023-01-21T21:22:07.040Z,-0.07
2023-01-21T21:24:40.758Z,-0.18
2023-01-21T21:27:14.925Z,-0.18
2023-01-21T21:29:47.798Z,-0.14
2023-01-21T21:32:22.930Z,-0.13
2023-01-21T21:34:57.437Z,-0.14
2023-01-21T21:37:30.027Z,-0.16
2023-01-21T21:40:03.017Z,-0.16
2023-01-21T21:42:57.354Z,-0.17
2023-01-21T21:45:32.423Z,-0.24
2023-01-21T21:48:23.229Z,-0.19
2023-01-21T21:51:00.519Z,-0.16
2023-01-21T21:53:35.108Z,-0.20
2023-01-21T21:56:10.447Z,-0.35
2023-01-21T21:58:43.697Z,-0.31
2023-01-21T22:01:19.946Z,-0.25
2023-01-21T22:03:53.568Z,-0.22
2023-01-21T22:06:24.440Z,-0.21
2023-01-21T22:08:58.744Z,-0.31
2023-01-21T22:11:32.950Z,-0.23
2023-01-21T22:14:05.699Z,-0.21
2023-01-21T22:16:38.487Z,-0.20
2023-01-21T22:19:13.243Z,-0.23
2023-01-21T22:21:45.707Z,-0.24
2023-01-21T22:24:18.198Z,-0.24
2023-01-21T22:26:51.550Z,-0.20
2023-01-21T22:29:24.122Z,-0.17
2023-01-21T22:31:56.600Z,-0.18
2023-01-21T22:34:29.491Z,-0.17
2023-01-21T22:37:03.728Z,-0.17
2023-01-21T22:39:36.453Z,-0.20
2023-01-21T22:42:10.596Z,-0.25
2023-01-21T22:44:43.110Z,-0.22
2023-01-21T22:47:15.774Z,-0.25
2023-01-21T22:49:50.188Z,-0.33
2023-01-21T22:52:25.826Z,-0.38
2023-01-21T22:54:59.569Z,-0.40
2023-01-21T22:57:30.282Z,-0.40
2023-01-21T23:00:03.063Z,-0.47
2023-01-21T23:02:35.764Z,-0.48
2023-01-21T23:05:09.587Z,-0.49
2023-01-21T23:07:42.638Z,-0.52
2023-01-21T23:10:17.609Z,-0.51
2023-01-21T23:12:50.562Z,-0.51
2023-01-21T23:15:24.177Z,-0.53
2023-01-21T23:17:54.888Z,-0.57
2023-01-21T23:20:29.318Z,-0.63
2023-01-21T23:23:02.472Z,-0.61
2023-01-21T23:25:34.899Z,-0.60
2023-01-21T23:28:09.591Z,-0.61
2023-01-21T23:30:42.642Z,-0.58
2023-01-21T23:33:16.638Z,-0.54
2023-01-21T23:35:47.988Z,-0.51
2023-01-21T23:38:20.477Z,-0.51
2023-01-21T23:40:53.352Z,-0.47
2023-01-21T23:43:29.188Z,-0.52
2023-01-21T23:46:02.427Z,-0.57
2023-01-21T23:48:34.929Z,-0.55
2023-01-21T23:51:12.532Z,-0.51
2023-01-21T23:53:45.417Z,-0.47
2023-01-21T23:56:19.943Z,-0.42
2023-01-21T23:58:53.624Z,-0.40
